Time;durP1;ratioP1;P1;durP2;ratioP2;P2;SDS_P1;SDS_P2;PMS_P1;PMS_P2;Temp;Humidity;BMP_temperature;BMP_pressure;BME280_temperature;BME280_humidity;BME280_pressure;Samples;Min_cycle;Max_cycle;Signal;HPM_P1;HPM_P2
2021/06/02 00:00:38;;;;;;;;;;;18.60;70.00;;;;;;5113707;28;20434;-74
2021/06/02 00:03:04;;;;;;;;;;;18.50;70.20;;;;;;5113059;28;20275;-74
2021/06/02 00:05:30;;;;;;;;;;;18.50;70.40;;;;;;5113666;28;19903;-74
2021/06/02 00:07:57;;;;;;;;;;;18.50;70.60;;;;;;5113443;28;19955;-75
2021/06/02 00:10:23;;;;;;;;;;;18.40;71.00;;;;;;5112957;28;19934;-75
2021/06/02 00:12:49;;;;;;;;;;;18.30;71.30;;;;;;5113677;28;19911;-74
2021/06/02 00:15:14;;;;;;;;;;;18.30;71.40;;;;;;5113478;28;20382;-75
2021/06/02 00:17:40;;;;;;;;;;;18.20;71.80;;;;;;5112633;28;20000;-74
2021/06/02 00:20:06;;;;;;;;;;;18.20;72.00;;;;;;5113472;28;19907;-74
2021/06/02 00:22:32;;;;;;;;;;;18.10;72.30;;;;;;5113295;28;19903;-75
2021/06/02 00:24:57;;;;;;;;;;;18.10;72.70;;;;;;5112804;28;20369;-75
2021/06/02 00:27:23;;;;;;;;;;;18.00;73.00;;;;;;5113373;28;19907;-75
2021/06/02 00:29:49;;;;;;;;;;;17.60;73.20;;;;;;5113463;28;19908;-75
2021/06/02 00:32:14;;;;;;;;;;;17.90;73.80;;;;;;5112883;28;19904;-75
2021/06/02 00:34:40;;;;;;;;;;;17.90;74.00;;;;;;5113785;28;19907;-75
2021/06/02 00:37:06;;;;;;;;;;;17.90;74.30;;;;;;5113531;28;20320;-74
2021/06/02 00:39:32;;;;;;;;;;;17.80;74.70;;;;;;5112999;28;19904;-74
2021/06/02 00:41:58;;;;;;;;;;;17.80;75.10;;;;;;5113293;28;19919;-76
2021/06/02 00:44:24;;;;;;;;;;;17.70;75.30;;;;;;5113405;28;20060;-74
2021/06/02 00:46:51;;;;;;;;;;;17.70;75.60;;;;;;5112778;28;19904;-75
2021/06/02 00:49:22;;;;;;;;;;;17.60;76.20;;;;;;5114220;28;19922;-75
2021/06/02 00:51:58;;;;;;;;;;;17.50;76.90;;;;;;5116339;28;19904;-73
2021/06/02 00:54:24;;;;;;;;;;;17.40;77.40;;;;;;5117334;28;20002;-76
2021/06/02 00:56:50;;;;;;;;;;;17.50;78.30;;;;;;5117028;28;19995;-75
2021/06/02 00:59:17;;;;;;;;;;;18.30;79.10;;;;;;5120662;28;20347;-75
2021/06/02 01:01:43;;;;;;;;;;;17.40;79.40;;;;;;5123029;28;19914;-75
2021/06/02 01:04:09;;;;;;;;;;;17.30;79.90;;;;;;5121476;28;19994;-73
2021/06/02 01:06:35;;;;;;;;;;;17.30;80.70;;;;;;5116264;28;19904;-75
2021/06/02 01:09:03;;;;;;;;;;;17.30;81.30;;;;;;5117408;28;19995;-75
2021/06/02 01:11:29;;;;;;;;;;;17.20;82.00;;;;;;5122009;28;19908;-74
2021/06/02 01:13:57;;;;;;;;;;;17.20;82.90;;;;;;5120476;28;19938;-75
2021/06/02 01:16:27;;;;;;;;;;;17.20;83.70;;;;;;5120264;28;19903;-75
2021/06/02 01:18:52;;;;;;;;;;;17.10;84.50;;;;;;5121441;28;20392;-76
2021/06/02 01:21:19;;;;;;;;;;;17.10;85.90;;;;;;5116204;28;19904;-75
2021/06/02 01:23:45;;;;;;;;;;;17.00;87.30;;;;;;5116261;28;19965;-74
2021/06/02 01:26:10;;;;;;;;;;;17.00;88.70;;;;;;5116348;28;20313;-74
2021/06/02 01:28:36;;;;;;;;;;;16.90;90.10;;;;;;5115739;28;19907;-75
2021/06/02 01:31:01;;;;;;;;;;;16.80;90.30;;;;;;5116211;28;19904;-75
2021/06/02 01:33:30;;;;;;;;;;;16.80;91.10;;;;;;5115970;28;19912;-75
2021/06/02 01:35:58;;;;;;;;;;;16.70;91.80;;;;;;5115605;28;19904;-75
2021/06/02 01:38:23;;;;;;;;;;;16.70;92.70;;;;;;5115960;28;19946;-74
2021/06/02 01:41:09;;;;;;;;;;;16.60;93.30;;;;;;5116028;28;19904;-75
2021/06/02 01:43:54;;;;;;;;;;;16.60;94.00;;;;;;5083577;28;19923;-75
2021/06/02 01:46:29;;;;;;;;;;;16.60;94.60;;;;;;5116157;28;19903;-75
2021/06/02 01:49:12;;;;;;;;;;;16.50;95.50;;;;;;5115074;28;20370;-75
2021/06/02 01:51:49;;;;;;;;;;;16.50;96.20;;;;;;5115894;28;19911;-74
2021/06/02 01:54:33;;;;;;;;;;;16.40;97.00;;;;;;5115943;28;19903;-76
2021/06/02 01:57:17;;;;;;;;;;;16.40;97.90;;;;;;5115012;28;19957;-75
2021/06/02 02:00:01;;;;;;;;;;;16.40;99.00;;;;;;5115671;28;20006;-76
2021/06/02 02:02:47;;;;;;;;;;;16.30;99.50;;;;;;5114237;28;19950;-75
2021/06/02 02:05:16;;;;;;;;;;;16.30;99.90;;;;;;5114912;28;19929;-75
2021/06/02 02:07:57;;;;;;;;;;;16.20;99.90;;;;;;5115510;28;19911;-74
2021/06/02 02:10:32;;;;;;;;;;;16.20;99.90;;;;;;5114733;28;19904;-74
2021/06/02 02:13:16;;;;;;;;;;;16.10;99.90;;;;;;5115284;28;19904;-75
2021/06/02 02:16:00;;;;;;;;;;;16.10;99.90;;;;;;5115277;28;19903;-75
2021/06/02 02:18:38;;;;;;;;;;;16.00;99.90;;;;;;5114788;28;19904;-75
2021/06/02 02:21:23;;;;;;;;;;;16.00;99.90;;;;;;5115076;28;19903;-75
2021/06/02 02:24:07;;;;;;;;;;;16.00;99.90;;;;;;5114372;28;19919;-74
2021/06/02 02:26:40;;;;;;;;;;;15.90;99.90;;;;;;5114879;28;20404;-74
2021/06/02 02:29:25;;;;;;;;;;;15.90;99.90;;;;;;5115020;28;19915;-74
2021/06/02 02:31:50;;;;;;;;;;;15.90;99.90;;;;;;5114482;28;19946;-76
2021/06/02 02:34:34;;;;;;;;;;;15.90;99.90;;;;;;5114954;28;19904;-74
2021/06/02 02:37:07;;;;;;;;;;;15.80;99.90;;;;;;5115038;28;19903;-75
2021/06/02 02:39:51;;;;;;;;;;;15.80;99.90;;;;;;5114258;28;19915;-75
2021/06/02 02:42:25;;;;;;;;;;;15.30;99.90;;;;;;5114698;28;20348;-75
2021/06/02 02:45:09;;;;;;;;;;;15.80;99.90;;;;;;5114396;28;19972;-75
2021/06/02 02:47:39;;;;;;;;;;;15.80;99.90;;;;;;5114745;28;19903;-75
2021/06/02 02:50:14;;;;;;;;;;;15.70;99.90;;;;;;5114784;28;19904;-75
2021/06/02 02:52:53;;;;;;;;;;;15.70;99.90;;;;;;5114019;28;19907;-75
2021/06/02 02:55:30;;;;;;;;;;;15.70;99.90;;;;;;5114508;28;19962;-74
2021/06/02 02:57:55;;;;;;;;;;;15.70;99.90;;;;;;5114701;28;19949;-75
2021/06/02 03:00:25;;;;;;;;;;;15.70;99.90;;;;;;5113840;28;19907;-75
2021/06/02 03:03:09;;;;;;;;;;;15.70;99.90;;;;;;5115032;28;19949;-76
2021/06/02 03:05:37;;;;;;;;;;;14.90;99.90;;;;;;5116068;28;19982;-76
2021/06/02 03:08:13;;;;;;;;;;;15.60;99.90;;;;;;5116787;28;19904;-75
2021/06/02 03:10:57;;;;;;;;;;;15.60;99.90;;;;;;5114526;28;20266;-75
2021/06/02 03:13:28;;;;;;;;;;;15.60;99.90;;;;;;5112812;28;19910;-75
2021/06/02 03:16:00;;;;;;;;;;;15.60;99.90;;;;;;5116207;28;19908;-75
2021/06/02 03:18:44;;;;;;;;;;;15.70;99.90;;;;;;5116532;28;19942;-76
2021/06/02 03:21:29;;;;;;;;;;;15.60;99.90;;;;;;5115924;28;19910;-77
2021/06/02 03:23:54;;;;;;;;;;;15.60;99.90;;;;;;5116117;28;19919;-76
2021/06/02 03:26:21;;;;;;;;;;;15.60;99.90;;;;;;5114185;28;19952;-76
2021/06/02 03:28:50;;;;;;;;;;;15.60;99.90;;;;;;5113198;28;19983;-75
2021/06/02 03:31:22;;;;;;;;;;;15.60;99.90;;;;;;5113960;28;20326;-76
2021/06/02 03:34:07;;;;;;;;;;;15.60;99.90;;;;;;5113307;28;19908;-75
2021/06/02 03:36:51;;;;;;;;;;;15.60;99.90;;;;;;5113875;28;19949;-76
2021/06/02 03:39:18;;;;;;;;;;;15.60;99.90;;;;;;5114291;28;20266;-76
2021/06/02 03:41:56;;;;;;;;;;;15.60;99.90;;;;;;5114197;28;20276;-75
2021/06/02 03:44:40;;;;;;;;;;;15.50;99.90;;;;;;5114270;28;19916;-76
2021/06/02 03:47:24;;;;;;;;;;;15.60;99.90;;;;;;5113957;28;20014;-76
2021/06/02 03:50:02;;;;;;;;;;;15.60;99.90;;;;;;5113299;28;19967;-76
2021/06/02 03:52:30;;;;;;;;;;;15.70;99.90;;;;;;5113778;28;20282;-74
2021/06/02 03:55:06;;;;;;;;;;;15.70;99.90;;;;;;5112873;28;20027;-76
2021/06/02 03:57:38;;;;;;;;;;;15.70;99.90;;;;;;5113649;28;19910;-75
2021/06/02 04:00:03;;;;;;;;;;;15.80;99.90;;;;;;5113846;28;20301;-75
2021/06/02 04:02:48;;;;;;;;;;;15.90;99.90;;;;;;5112880;28;19919;-76
2021/06/02 04:05:26;;;;;;;;;;;16.00;99.90;;;;;;5113555;28;20014;-75
2021/06/02 04:08:10;;;;;;;;;;;16.00;99.90;;;;;;5113293;28;20363;-75
2021/06/02 04:10:44;;;;;;;;;;;16.10;99.90;;;;;;5112835;28;19904;-75
2021/06/02 04:13:27;;;;;;;;;;;16.10;99.90;;;;;;5113427;28;19910;-75
2021/06/02 04:15:57;;;;;;;;;;;16.10;99.90;;;;;;5112885;28;19904;-74
2021/06/02 04:18:24;;;;;;;;;;;16.10;99.90;;;;;;5113641;28;19930;-75
2021/06/02 04:20:50;;;;;;;;;;;16.10;99.90;;;;;;5095108;28;19907;-76
2021/06/02 04:23:17;;;;;;;;;;;16.10;99.90;;;;;;5112672;28;19960;-75
2021/06/02 04:25:44;;;;;;;;;;;16.20;99.90;;;;;;5116034;28;19915;-75
2021/06/02 04:28:11;;;;;;;;;;;15.50;99.90;;;;;;5117252;28;19962;-75
2021/06/02 04:30:38;;;;;;;;;;;16.20;99.90;;;;;;5116896;28;19910;-75
2021/06/02 04:33:03;;;;;;;;;;;16.20;99.90;;;;;;5117543;28;19915;-75
2021/06/02 04:35:30;;;;;;;;;;;16.20;99.90;;;;;;5117566;28;20267;-76
2021/06/02 04:37:56;;;;;;;;;;;16.20;99.90;;;;;;5117043;28;19910;-75
2021/06/02 04:40:22;;;;;;;;;;;16.20;99.90;;;;;;5117340;28;19915;-75
2021/06/02 04:42:48;;;;;;;;;;;16.20;99.90;;;;;;5116803;28;20287;-75
2021/06/02 04:45:22;;;;;;;;;;;16.10;99.90;;;;;;5116681;28;19911;-75
2021/06/02 04:47:48;;;;;;;;;;;16.10;99.90;;;;;;5117574;28;19930;-74
2021/06/02 04:50:13;;;;;;;;;;;16.00;99.90;;;;;;5117713;28;19912;-75
2021/06/02 04:52:42;;;;;;;;;;;16.00;99.90;;;;;;5117173;28;19910;-76
2021/06/02 04:55:26;;;;;;;;;;;15.90;99.90;;;;;;5117214;28;19904;-75
2021/06/02 04:57:51;;;;;;;;;;;15.80;99.90;;;;;;5117247;28;19927;-75
2021/06/02 05:00:26;;;;;;;;;;;15.70;99.90;;;;;;5116483;28;20359;-76
2021/06/02 05:02:57;;;;;;;;;;;15.70;99.90;;;;;;5117082;28;19992;-75
2021/06/02 05:05:32;;;;;;;;;;;15.60;99.90;;;;;;5116376;28;19911;-75
2021/06/02 05:08:09;;;;;;;;;;;15.70;99.90;;;;;;5117258;28;19947;-76
2021/06/02 05:10:53;;;;;;;;;;;15.70;99.90;;;;;;5120070;28;20321;-75
2021/06/02 05:13:18;;;;;;;;;;;15.80;99.90;;;;;;5119612;28;19938;-75
2021/06/02 05:16:02;;;;;;;;;;;15.90;99.90;;;;;;5119011;28;19903;-75
2021/06/02 05:18:46;;;;;;;;;;;16.00;99.90;;;;;;5117403;28;20002;-75
2021/06/02 05:23:59;;;;;;;;;;;16.10;99.90;;;;;;5120478;28;20351;-75
2021/06/02 05:26:43;;;;;;;;;;;16.20;99.90;;;;;;5118790;28;19908;-76
2021/06/02 05:29:11;;;;;;;;;;;16.20;99.90;;;;;;5116679;28;20377;-75
2021/06/02 05:31:51;;;;;;;;;;;16.30;99.90;;;;;;5116529;28;20093;-75
2021/06/02 05:34:35;;;;;;;;;;;16.40;99.90;;;;;;5115446;28;19949;-75
2021/06/02 05:37:07;;;;;;;;;;;16.40;99.90;;;;;;5114912;28;19907;-75
2021/06/02 05:39:47;;;;;;;;;;;16.50;99.90;;;;;;5116082;28;19904;-75
2021/06/02 05:42:15;;;;;;;;;;;16.60;99.90;;;;;;5115067;28;19989;-75
2021/06/02 05:45:13;;;;;;;;;;;16.60;99.90;;;;;;5115511;28;19912;-75
2021/06/02 05:47:58;;;;;;;;;;;16.70;99.90;;;;;;5115256;28;19925;-76
2021/06/02 05:50:32;;;;;;;;;;;16.80;99.90;;;;;;5115625;28;19904;-74
2021/06/02 05:52:57;;;;;;;;;;;16.80;99.90;;;;;;5115871;28;19907;-75
2021/06/02 05:55:34;;;;;;;;;;;16.90;99.90;;;;;;5114815;28;19919;-75
2021/06/02 05:58:17;;;;;;;;;;;17.00;99.90;;;;;;5115499;28;19908;-76
2021/06/02 06:01:02;;;;;;;;;;;17.00;99.90;;;;;;5115534;28;19914;-76
2021/06/02 06:03:41;;;;;;;;;;;17.10;99.90;;;;;;5114574;28;19908;-75
2021/06/02 06:06:15;;;;;;;;;;;17.20;99.90;;;;;;5114857;28;19949;-75
2021/06/02 06:08:53;;;;;;;;;;;17.30;99.90;;;;;;5114172;28;19911;-75
2021/06/02 06:11:27;;;;;;;;;;;17.40;99.90;;;;;;5115005;28;20343;-75
2021/06/02 06:14:11;;;;;;;;;;;17.40;99.90;;;;;;5115137;28;19910;-75
2021/06/02 06:16:55;;;;;;;;;;;17.50;99.90;;;;;;5113776;28;19966;-75
2021/06/02 06:19:29;;;;;;;;;;;17.60;99.90;;;;;;5114798;28;20347;-75
2021/06/02 06:21:55;;;;;;;;;;;17.70;99.90;;;;;;5114999;28;19959;-74
2021/06/02 06:24:23;;;;;;;;;;;17.80;99.90;;;;;;5114060;28;19912;-75
2021/06/02 06:26:53;;;;;;;;;;;17.80;99.90;;;;;;5114803;28;19903;-75
2021/06/02 06:29:45;;;;;;;;;;;17.90;99.90;;;;;;5114709;28;20418;-74
2021/06/02 06:32:10;;;;;;;;;;;18.00;99.90;;;;;;5115124;28;19910;-76
2021/06/02 06:34:36;;;;;;;;;;;18.10;99.90;;;;;;5115588;28;20246;-75
2021/06/02 06:37:03;;;;;;;;;;;18.10;99.90;;;;;;5114779;28;20345;-75
2021/06/02 06:39:48;;;;;;;;;;;18.20;99.90;;;;;;5114836;28;19914;-75
2021/06/02 06:42:16;;;;;;;;;;;18.30;99.90;;;;;;5114758;28;19960;-75
2021/06/02 06:44:43;;;;;;;;;;;18.30;99.90;;;;;;5114024;28;20318;-75
2021/06/02 06:47:09;;;;;;;;;;;18.40;99.90;;;;;;5114241;28;19907;-75
2021/06/02 06:49:35;;;;;;;;;;;18.50;99.90;;;;;;5114956;28;19903;-75
2021/06/02 06:52:02;;;;;;;;;;;18.70;99.90;;;;;;5113606;28;19910;-74
2021/06/02 06:54:29;;;;;;;;;;;18.60;99.90;;;;;;5114265;28;19904;-75
2021/06/02 06:56:54;;;;;;;;;;;18.70;99.90;;;;;;5113624;28;20251;-75
2021/06/02 06:59:20;;;;;;;;;;;18.70;99.90;;;;;;5113737;28;19903;-75
2021/06/02 07:01:46;;;;;;;;;;;18.80;99.90;;;;;;5114316;28;19904;-75
2021/06/02 07:04:12;;;;;;;;;;;18.80;99.90;;;;;;5095668;28;19915;-75
2021/06/02 07:06:38;;;;;;;;;;;19.00;99.90;;;;;;5113046;28;19990;-76
2021/06/02 07:09:05;;;;;;;;;;;19.00;99.90;;;;;;5114160;28;19915;-76
2021/06/02 07:11:36;;;;;;;;;;;19.00;99.90;;;;;;5114310;28;19904;-75
2021/06/02 07:14:02;;;;;;;;;;;19.00;99.90;;;;;;5115072;28;19904;-76
2021/06/02 07:16:27;;;;;;;;;;;19.10;99.90;;;;;;5117873;28;19956;-75
2021/06/02 07:18:56;;;;;;;;;;;19.20;99.90;;;;;;5113737;28;19930;-75
2021/06/02 07:21:22;;;;;;;;;;;19.20;99.90;;;;;;5114394;28;19904;-75
2021/06/02 07:23:47;;;;;;;;;;;19.40;99.90;;;;;;5115546;28;19912;-75
2021/06/02 07:26:13;;;;;;;;;;;19.40;99.90;;;;;;5114230;28;20274;-77
2021/06/02 07:28:39;;;;;;;;;;;19.50;99.90;;;;;;5116023;28;19904;-76
2021/06/02 07:31:06;;;;;;;;;;;19.50;99.90;;;;;;5117246;28;19903;-76
2021/06/02 07:33:32;;;;;;;;;;;19.60;99.90;;;;;;5113674;28;19904;-74
2021/06/02 07:35:58;;;;;;;;;;;19.70;99.90;;;;;;5114373;28;19904;-75
2021/06/02 07:38:23;;;;;;;;;;;19.70;99.90;;;;;;5113782;28;20026;-76
2021/06/02 07:40:49;;;;;;;;;;;19.80;99.90;;;;;;5113380;28;20003;-75
2021/06/02 07:43:15;;;;;;;;;;;19.80;99.90;;;;;;5113613;28;19916;-76
2021/06/02 07:45:41;;;;;;;;;;;19.90;99.90;;;;;;5113669;28;20309;-76
2021/06/02 07:48:06;;;;;;;;;;;20.00;99.90;;;;;;5112640;28;19903;-76
2021/06/02 07:50:32;;;;;;;;;;;20.00;99.90;;;;;;5113601;28;19904;-76
2021/06/02 07:52:57;;;;;;;;;;;20.10;99.90;;;;;;5113783;28;19984;-76
2021/06/02 07:55:23;;;;;;;;;;;20.20;99.90;;;;;;5113205;28;19907;-75
2021/06/02 07:57:48;;;;;;;;;;;20.30;99.90;;;;;;5113454;28;20251;-74
2021/06/02 08:00:14;;;;;;;;;;;20.30;99.90;;;;;;5113016;28;19970;-75
2021/06/02 08:02:40;;;;;;;;;;;20.40;99.90;;;;;;5112626;28;19911;-76
2021/06/02 08:05:06;;;;;;;;;;;20.50;99.90;;;;;;5113659;28;19912;-76
2021/06/02 08:07:31;;;;;;;;;;;20.60;99.90;;;;;;5113862;28;19969;-75
2021/06/02 08:09:57;;;;;;;;;;;20.60;99.90;;;;;;5112797;28;19904;-75
2021/06/02 08:12:22;;;;;;;;;;;20.70;99.90;;;;;;5113655;28;19908;-76
2021/06/02 08:14:48;;;;;;;;;;;20.80;99.90;;;;;;5113656;28;20370;-75
2021/06/02 08:17:13;;;;;;;;;;;20.80;99.90;;;;;;5112623;28;20262;-76
2021/06/02 08:19:39;;;;;;;;;;;20.90;99.90;;;;;;5113732;28;19910;-75
2021/06/02 08:22:05;;;;;;;;;;;21.00;99.90;;;;;;5112340;28;20049;-76
2021/06/02 08:24:36;;;;;;;;;;;21.00;99.90;;;;;;5113843;28;19912;-75
2021/06/02 08:27:02;;;;;;;;;;;21.00;99.90;;;;;;5113610;28;19904;-75
2021/06/02 08:29:28;;;;;;;;;;;21.10;99.90;;;;;;5112997;28;19911;-75
2021/06/02 08:31:53;;;;;;;;;;;21.20;99.90;;;;;;5113548;28;20410;-75
2021/06/02 08:34:19;;;;;;;;;;;21.30;99.90;;;;;;5113504;28;19904;-77
2021/06/02 08:36:44;;;;;;;;;;;21.40;99.90;;;;;;5112821;28;19947;-75
2021/06/02 08:39:10;;;;;;;;;;;21.50;99.90;;;;;;5114205;28;19904;-75
2021/06/02 08:41:37;;;;;;;;;;;21.50;99.90;;;;;;5113511;28;19931;-75
2021/06/02 08:44:03;;;;;;;;;;;21.60;99.90;;;;;;5112451;28;19954;-75
2021/06/02 08:46:28;;;;;;;;;;;21.60;99.90;;;;;;5113179;28;19907;-75
2021/06/02 08:48:55;;;;;;;;;;;21.70;99.90;;;;;;5113476;28;19915;-75
2021/06/02 08:51:20;;;;;;;;;;;21.80;99.90;;;;;;5112603;28;19903;-75
2021/06/02 08:53:46;;;;;;;;;;;21.80;99.60;;;;;;5113439;28;20263;-76
2021/06/02 08:56:12;;;;;;;;;;;21.80;99.40;;;;;;5113311;28;19929;-75
2021/06/02 08:58:38;;;;;;;;;;;22.00;99.60;;;;;;5112616;28;19904;-75
2021/06/02 09:01:03;;;;;;;;;;;22.10;99.60;;;;;;5113140;28;19915;-75
2021/06/02 09:03:31;;;;;;;;;;;22.20;99.10;;;;;;5112870;28;20326;-75
2021/06/02 09:05:58;;;;;;;;;;;22.20;98.70;;;;;;5112633;28;19904;-76
2021/06/02 09:08:24;;;;;;;;;;;22.30;98.60;;;;;;5113155;28;20312;-77
2021/06/02 09:10:52;;;;;;;;;;;22.40;98.10;;;;;;5113297;28;19911;-76
2021/06/02 09:13:22;;;;;;;;;;;22.50;98.30;;;;;;5115738;28;20003;-75
2021/06/02 09:15:49;;;;;;;;;;;22.50;98.00;;;;;;5116877;28;20374;-74
2021/06/02 09:18:19;;;;;;;;;;;22.60;98.20;;;;;;5116075;28;19904;-75
2021/06/02 09:20:46;;;;;;;;;;;22.70;97.20;;;;;;5117260;28;19904;-76
2021/06/02 09:23:30;;;;;;;;;;;22.80;97.50;;;;;;5116831;28;19907;-76
2021/06/02 09:25:57;;;;;;;;;;;22.80;97.60;;;;;;5115953;28;19943;-76
2021/06/02 09:28:22;;;;;;;;;;;22.90;96.20;;;;;;5117050;28;19909;-76
2021/06/02 09:30:47;;;;;;;;;;;23.00;96.50;;;;;;5119609;28;20443;-77
2021/06/02 09:33:13;;;;;;;;;;;23.20;96.20;;;;;;5118592;28;19907;-76
2021/06/02 09:35:41;;;;;;;;;;;23.30;95.80;;;;;;5122550;28;19916;-76
2021/06/02 09:38:21;;;;;;;;;;;23.20;93.90;;;;;;5118784;28;20197;-76
2021/06/02 09:40:52;;;;;;;;;;;23.30;93.50;;;;;;5115650;28;19904;-76
2021/06/02 09:43:28;;;;;;;;;;;23.30;93.90;;;;;;5115945;28;19924;-76
2021/06/02 09:46:06;;;;;;;;;;;23.40;94.30;;;;;;5115794;28;19908;-75
2021/06/02 09:48:51;;;;;;;;;;;23.50;93.00;;;;;;5115156;28;20001;-75
2021/06/02 09:51:35;;;;;;;;;;;23.60;92.50;;;;;;5115941;28;19950;-75
2021/06/02 09:54:02;;;;;;;;;;;23.70;92.00;;;;;;5115374;28;20051;-76
2021/06/02 09:56:41;;;;;;;;;;;23.70;92.00;;;;;;5115394;28;19904;-76
2021/06/02 09:59:08;;;;;;;;;;;23.90;91.90;;;;;;5115673;28;19910;-76
2021/06/02 10:01:53;;;;;;;;;;;24.00;90.70;;;;;;5114911;28;19919;-75
2021/06/02 10:04:19;;;;;;;;;;;24.00;87.80;;;;;;5115453;28;20259;-76
2021/06/02 10:06:46;;;;;;;;;;;24.00;86.50;;;;;;5115351;28;19942;-77
2021/06/02 10:09:12;;;;;;;;;;;24.00;85.20;;;;;;5114705;28;20327;-76
2021/06/02 10:11:38;;;;;;;;;;;24.10;84.70;;;;;;5115248;28;19904;-75
2021/06/02 10:14:10;;;;;;;;;;;24.20;83.70;;;;;;5115387;28;19907;-75
2021/06/02 10:16:45;;;;;;;;;;;24.30;82.50;;;;;;5114720;28;19961;-74
2021/06/02 10:19:11;;;;;;;;;;;24.30;82.10;;;;;;5115617;28;20296;-74
2021/06/02 10:21:46;;;;;;;;;;;24.50;79.90;;;;;;5114560;28;19923;-77
2021/06/02 10:24:12;;;;;;;;;;;24.60;77.80;;;;;;5114503;28;19916;-74
2021/06/02 10:26:40;;;;;;;;;;;24.70;74.40;;;;;;5115150;28;19939;-73
2021/06/02 10:29:06;;;;;;;;;;;24.70;74.40;;;;;;5114285;28;19907;-74
2021/06/02 10:31:32;;;;;;;;;;;24.70;75.70;;;;;;5115125;28;19911;-75
2021/06/02 10:33:57;;;;;;;;;;;24.80;75.10;;;;;;5115876;27;19908;-74
2021/06/02 10:36:24;;;;;;;;;;;24.80;74.40;;;;;;5131096;27;19911;-75
2021/06/02 10:38:51;;;;;;;;;;;24.90;71.80;;;;;;5133483;27;19925;-75
2021/06/02 10:41:18;;;;;;;;;;;25.00;71.20;;;;;;5135641;27;19978;-75
2021/06/02 10:43:45;;;;;;;;;;;25.10;69.30;;;;;;5134156;27;19958;-75
2021/06/02 10:46:22;;;;;;;;;;;25.10;67.00;;;;;;5135392;27;19956;-76
2021/06/02 10:48:48;;;;;;;;;;;25.10;66.20;;;;;;5135205;27;20010;-75
2021/06/02 10:51:39;;;;;;;;;;;25.20;66.70;;;;;;5134290;27;19925;-74
2021/06/02 10:54:23;;;;;;;;;;;25.20;66.60;;;;;;5134958;27;20382;-75
2021/06/02 10:56:48;;;;;;;;;;;25.20;64.30;;;;;;5134286;27;19983;-76
2021/06/02 10:59:33;;;;;;;;;;;25.30;64.00;;;;;;5135292;27;19998;-76
2021/06/02 11:02:11;;;;;;;;;;;25.40;64.30;;;;;;5134853;27;19903;-76
2021/06/02 11:04:38;;;;;;;;;;;25.50;64.00;;;;;;5133876;27;19943;-74
2021/06/02 11:07:14;;;;;;;;;;;25.50;62.00;;;;;;5134905;27;19930;-75
2021/06/02 11:09:51;;;;;;;;;;;25.60;61.60;;;;;;5134816;27;19903;-76
2021/06/02 11:12:16;;;;;;;;;;;25.60;60.60;;;;;;5133687;27;20355;-75
2021/06/02 11:14:42;;;;;;;;;;;25.80;61.20;;;;;;5135000;27;19921;-76
2021/06/02 11:17:09;;;;;;;;;;;25.80;60.00;;;;;;5134845;27;19903;-75
2021/06/02 11:19:41;;;;;;;;;;;25.80;59.60;;;;;;5134037;27;19903;-75
2021/06/02 11:22:07;;;;;;;;;;;25.90;60.30;;;;;;5134827;27;19904;-77
2021/06/02 11:27:10;;;;;;;;;;;26.00;60.00;;;;;;5136646;27;19926;-76
2021/06/02 11:29:51;;;;;;;;;;;26.10;59.70;;;;;;5134866;27;19955;-76
2021/06/02 11:32:17;;;;;;;;;;;26.10;58.90;;;;;;5133900;27;20270;-74
2021/06/02 11:34:43;;;;;;;;;;;25.70;58.70;;;;;;5134530;27;19903;-76
2021/06/02 11:37:09;;;;;;;;;;;26.30;59.10;;;;;;5137217;27;20059;-75
2021/06/02 11:39:37;;;;;;;;;;;26.30;58.60;;;;;;5136268;27;19903;-75
2021/06/02 11:42:03;;;;;;;;;;;26.30;59.10;;;;;;5137323;27;20851;-74
2021/06/02 11:44:33;;;;;;;;;;;26.30;58.50;;;;;;5134549;27;19922;-75
2021/06/02 11:46:59;;;;;;;;;;;26.40;59.00;;;;;;5133516;27;20270;-75
2021/06/02 11:49:24;;;;;;;;;;;26.40;58.50;;;;;;5134591;27;19958;-75
2021/06/02 11:51:50;;;;;;;;;;;26.50;59.10;;;;;;5134326;27;19904;-75
2021/06/02 11:54:15;;;;;;;;;;;26.50;58.00;;;;;;5133596;27;19904;-75
2021/06/02 11:56:41;;;;;;;;;;;26.50;58.10;;;;;;5134758;27;19903;-75
2021/06/02 11:59:06;;;;;;;;;;;26.70;58.30;;;;;;5134424;28;19903;-75
2021/06/02 12:01:32;;;;;;;;;;;26.80;57.50;;;;;;5133432;28;19904;-75
2021/06/02 12:03:58;;;;;;;;;;;26.80;57.40;;;;;;5134094;28;19911;-75
2021/06/02 12:06:31;;;;;;;;;;;26.90;57.50;;;;;;5134321;28;19908;-76
2021/06/02 12:08:57;;;;;;;;;;;26.90;57.80;;;;;;5133388;28;19910;-76
2021/06/02 12:11:22;;;;;;;;;;;26.90;57.10;;;;;;5134418;28;19903;-75
2021/06/02 12:13:48;;;;;;;;;;;27.00;56.70;;;;;;5134065;28;19907;-75
2021/06/02 12:16:22;;;;;;;;;;;27.10;56.10;;;;;;5133459;28;19908;-75
2021/06/02 12:18:47;;;;;;;;;;;27.10;56.20;;;;;;5133656;28;19903;-74
2021/06/02 12:21:17;;;;;;;;;;;27.30;56.30;;;;;;5133005;28;19907;-75
2021/06/02 12:23:48;;;;;;;;;;;27.30;56.30;;;;;;5134026;28;19956;-75
2021/06/02 12:26:17;;;;;;;;;;;27.40;56.40;;;;;;5134250;28;19907;-74
2021/06/02 12:28:46;;;;;;;;;;;27.40;55.80;;;;;;5133346;28;20385;-74
2021/06/02 12:31:31;;;;;;;;;;;27.50;55.80;;;;;;5133956;28;19939;-74
2021/06/02 12:34:04;;;;;;;;;;;27.60;55.40;;;;;;5134878;28;19903;-75
2021/06/02 12:36:31;;;;;;;;;;;27.70;55.30;;;;;;5134461;28;19915;-76
2021/06/02 12:38:57;;;;;;;;;;;27.90;54.70;;;;;;5134153;28;19925;-76
2021/06/02 12:41:25;;;;;;;;;;;27.90;54.30;;;;;;5133861;28;19911;-74
2021/06/02 12:43:51;;;;;;;;;;;28.10;54.00;;;;;;5132886;28;19940;-75
2021/06/02 12:46:16;;;;;;;;;;;28.00;53.70;;;;;;5135879;27;19911;-74
2021/06/02 12:48:43;;;;;;;;;;;28.10;53.60;;;;;;5137791;27;19907;-75
2021/06/02 12:51:11;;;;;;;;;;;28.20;53.20;;;;;;5136923;27;20371;-75
2021/06/02 12:53:38;;;;;;;;;;;28.30;54.00;;;;;;5138080;27;20270;-74
2021/06/02 12:56:05;;;;;;;;;;;28.40;52.20;;;;;;5137845;27;20008;-75
2021/06/02 12:58:32;;;;;;;;;;;28.50;51.90;;;;;;5137000;27;20263;-74
2021/06/02 13:01:16;;;;;;;;;;;28.60;52.40;;;;;;5137728;27;19911;-75
2021/06/02 13:03:48;;;;;;;;;;;28.70;52.20;;;;;;5136736;27;20250;-75
2021/06/02 13:06:20;;;;;;;;;;;28.80;51.00;;;;;;5137812;27;19986;-75
2021/06/02 13:08:46;;;;;;;;;;;28.80;51.40;;;;;;5137543;27;20419;-74
2021/06/02 13:11:12;;;;;;;;;;;28.80;51.50;;;;;;5136627;27;19903;-75
2021/06/02 13:13:39;;;;;;;;;;;28.90;50.40;;;;;;5137397;27;19947;-76
2021/06/02 13:16:06;;;;;;;;;;;28.90;50.80;;;;;;5137278;27;19904;-74
2021/06/02 13:18:32;;;;;;;;;;;29.10;50.70;;;;;;5136512;27;19904;-75
2021/06/02 13:21:08;;;;;;;;;;;29.10;50.10;;;;;;5137320;27;20347;-75
2021/06/02 13:23:33;;;;;;;;;;;29.20;49.00;;;;;;5136939;27;19915;-74
2021/06/02 13:26:00;;;;;;;;;;;29.40;48.80;;;;;;5136344;27;20270;-74
2021/06/02 13:28:26;;;;;;;;;;;29.50;47.30;;;;;;5137191;27;19908;-74
2021/06/02 13:30:59;;;;;;;;;;;29.70;47.20;;;;;;5138262;27;20359;-74
2021/06/02 13:33:24;;;;;;;;;;;29.80;47.00;;;;;;5136347;27;19908;-75
2021/06/02 13:35:59;;;;;;;;;;;29.90;47.50;;;;;;5137087;27;19963;-75
2021/06/02 13:38:26;;;;;;;;;;;29.90;47.20;;;;;;5136502;27;19911;-75
2021/06/02 13:40:51;;;;;;;;;;;30.00;46.50;;;;;;5138554;27;19948;-75
2021/06/02 13:43:18;;;;;;;;;;;30.20;47.50;;;;;;5137598;27;19916;-76
2021/06/02 13:45:43;;;;;;;;;;;30.10;45.90;;;;;;5136805;27;19923;-75
2021/06/02 13:48:28;;;;;;;;;;;30.20;45.40;;;;;;5138518;27;19964;-75
2021/06/02 13:51:08;;;;;;;;;;;30.20;45.00;;;;;;5137435;27;19908;-74
2021/06/02 13:53:33;;;;;;;;;;;30.30;46.00;;;;;;5136855;27;19943;-74
2021/06/02 13:55:59;;;;;;;;;;;30.30;45.30;;;;;;5137890;27;20316;-75
2021/06/02 13:58:25;;;;;;;;;;;30.40;45.00;;;;;;5135880;27;19903;-75
2021/06/02 14:00:53;;;;;;;;;;;30.60;45.00;;;;;;5136870;27;19903;-75
2021/06/02 14:03:20;;;;;;;;;;;30.70;44.70;;;;;;5137445;27;19910;-74
2021/06/02 14:05:45;;;;;;;;;;;30.70;43.90;;;;;;5138075;27;19907;-75
2021/06/02 14:08:11;;;;;;;;;;;30.80;43.30;;;;;;5137368;27;19910;-74
2021/06/02 14:10:37;;;;;;;;;;;31.00;43.20;;;;;;5136725;27;19911;-75
2021/06/02 14:13:04;;;;;;;;;;;31.10;43.80;;;;;;5136471;27;19910;-75
2021/06/02 14:15:29;;;;;;;;;;;31.10;43.70;;;;;;5135354;27;19907;-75
2021/06/02 14:17:54;;;;;;;;;;;31.40;44.00;;;;;;5136015;27;19907;-76
2021/06/02 14:20:20;;;;;;;;;;;31.50;44.00;;;;;;5135859;27;19994;-76
2021/06/02 14:22:46;;;;;;;;;;;31.60;42.60;;;;;;5135349;27;19911;-76
2021/06/02 14:25:16;;;;;;;;;;;31.60;42.20;;;;;;5135951;27;19919;-75
2021/06/02 14:27:41;;;;;;;;;;;31.80;41.60;;;;;;5135247;27;19903;-76
2021/06/02 14:30:07;;;;;;;;;;;31.80;41.40;;;;;;5135997;27;20229;-75
2021/06/02 14:32:33;;;;;;;;;;;31.90;41.00;;;;;;5136497;27;19911;-75
2021/06/02 14:34:58;;;;;;;;;;;32.00;40.70;;;;;;5135467;27;19907;-75
2021/06/02 14:37:26;;;;;;;;;;;32.10;40.80;;;;;;5136318;27;19907;-74
2021/06/02 14:39:53;;;;;;;;;;;32.20;40.60;;;;;;5135725;27;20308;-74